createdAt,value
2022-12-02T00:00:19.743Z,34.60
2022-12-02T00:01:19.749Z,34.50
2022-12-02T00:02:19.698Z,34.80
2022-12-02T00:03:19.874Z,34.50
2022-12-02T00:04:19.950Z,35.60
2022-12-02T00:05:19.690Z,35.40
2022-12-02T00:06:19.654Z,34.30
2022-12-02T00:07:19.669Z,34.90
2022-12-02T00:08:19.667Z,34.10
2022-12-02T00:09:19.615Z,34.90
2022-12-02T00:10:19.626Z,34.20
2022-12-02T00:11:19.606Z,35.20
2022-12-02T00:12:19.585Z,34.10
2022-12-02T00:13:19.564Z,36.00
2022-12-02T00:14:19.559Z,34.20
2022-12-02T00:15:19.526Z,35.20
2022-12-02T00:16:19.615Z,35.20
2022-12-02T00:17:19.541Z,36.20
2022-12-02T00:18:19.501Z,36.40
2022-12-02T00:19:19.483Z,37.10
2022-12-02T00:20:19.481Z,36.40
2022-12-02T00:21:19.478Z,36.10
2022-12-02T00:22:19.448Z,35.60
2022-12-02T00:23:19.431Z,36.00
2022-12-02T00:24:19.418Z,34.20
2022-12-02T00:25:19.400Z,35.30
2022-12-02T00:26:19.413Z,34.40
2022-12-02T00:27:19.373Z,34.50
2022-12-02T00:28:19.406Z,35.10
2022-12-02T00:29:19.348Z,35.20
2022-12-02T00:30:19.337Z,33.50
2022-12-02T00:31:19.468Z,35.10
2022-12-02T00:32:19.343Z,33.90
2022-12-02T00:33:19.315Z,34.80
2022-12-02T00:34:19.297Z,34.20
2022-12-02T00:35:19.284Z,33.70
2022-12-02T00:36:19.266Z,34.80
2022-12-02T00:37:19.276Z,35.80
2022-12-02T00:38:19.243Z,34.80
2022-12-02T00:39:19.218Z,35.40
2022-12-02T00:40:19.215Z,35.10
2022-12-02T00:41:19.198Z,36.00
2022-12-02T00:42:19.189Z,36.50
2022-12-02T00:43:21.225Z,36.30
2022-12-02T00:44:19.159Z,35.50
2022-12-02T00:45:19.140Z,35.40
2022-12-02T00:46:19.236Z,35.90
2022-12-02T00:47:19.131Z,36.50
2022-12-02T00:48:19.196Z,36.00
2022-12-02T00:49:19.101Z,35.90
2022-12-02T00:50:19.080Z,36.70
2022-12-02T00:51:19.223Z,35.50
2022-12-02T00:52:19.060Z,36.10
2022-12-02T00:53:19.055Z,36.50
2022-12-02T00:54:19.038Z,36.40
2022-12-02T00:55:19.015Z,35.50
2022-12-02T00:56:19.009Z,35.70
2022-12-02T00:57:19.013Z,36.90
2022-12-02T00:58:18.999Z,35.60
2022-12-02T00:59:19.025Z,37.60
2022-12-02T01:00:18.948Z,35.00
2022-12-02T01:01:18.999Z,34.80
2022-12-02T01:02:18.991Z,36.10
2022-12-02T01:03:18.909Z,36.20
2022-12-02T01:04:18.930Z,35.70
2022-12-02T01:05:18.883Z,36.10
2022-12-02T01:06:18.872Z,35.30
2022-12-02T01:07:18.883Z,35.60
2022-12-02T01:08:18.877Z,35.90
2022-12-02T01:09:18.822Z,35.90
2022-12-02T01:10:18.822Z,35.60
2022-12-02T01:11:18.796Z,36.70
2022-12-02T01:12:18.802Z,35.50
2022-12-02T01:13:18.799Z,36.10
2022-12-02T01:14:18.807Z,36.90
2022-12-02T01:15:18.781Z,36.40
2022-12-02T01:16:18.806Z,37.00
2022-12-02T01:17:18.731Z,36.40
2022-12-02T01:18:18.737Z,35.60
2022-12-02T01:19:19.621Z,36.00
2022-12-02T01:20:18.690Z,36.70
2022-12-02T01:21:18.661Z,36.30
2022-12-02T01:22:18.661Z,36.60
2022-12-02T01:23:18.643Z,37.80
2022-12-02T01:24:18.673Z,36.60
2022-12-02T01:25:18.627Z,36.80
2022-12-02T01:26:18.633Z,38.30
2022-12-02T01:27:18.613Z,37.00
2022-12-02T01:28:18.593Z,37.70
2022-12-02T01:29:18.603Z,37.50
2022-12-02T01:30:18.560Z,37.40
2022-12-02T01:34:31.374Z,37.50
2022-12-02T01:35:32.309Z,38.80
2022-12-02T01:36:32.299Z,38.30
2022-12-02T01:37:32.280Z,39.60
2022-12-02T01:38:32.292Z,37.50
2022-12-02T01:39:32.286Z,38.50
2022-12-02T01:40:37.680Z,39.30
2022-12-02T01:41:32.227Z,39.60
2022-12-02T01:42:32.288Z,39.40
2022-12-02T01:43:32.228Z,39.20
2022-12-02T01:44:32.211Z,39.70
2022-12-02T01:45:32.252Z,39.80
2022-12-02T01:46:32.171Z,39.20
2022-12-02T01:47:32.157Z,38.80
2022-12-02T01:48:32.139Z,39.40
2022-12-02T01:49:32.158Z,39.50
2022-12-02T01:50:32.123Z,40.00
2022-12-02T01:51:32.128Z,39.20
2022-12-02T01:52:32.109Z,39.10
2022-12-02T01:53:32.075Z,40.10
2022-12-02T01:54:32.073Z,39.00
2022-12-02T01:55:32.051Z,39.30
2022-12-02T01:56:32.023Z,39.50
2022-12-02T01:57:32.020Z,40.10
2022-12-02T01:58:32.002Z,39.00
2022-12-02T01:59:32.013Z,39.40
2022-12-02T02:00:32.009Z,39.20
2022-12-02T02:01:32.056Z,39.60
2022-12-02T02:02:31.975Z,39.00
2022-12-02T02:03:31.937Z,38.50
2022-12-02T02:04:31.940Z,37.90
2022-12-02T02:05:31.938Z,38.40
2022-12-02T02:06:31.890Z,38.60
2022-12-02T02:07:31.942Z,37.40
2022-12-02T02:08:31.884Z,37.60
2022-12-02T02:09:31.889Z,37.50
2022-12-02T02:10:31.844Z,36.80
2022-12-02T02:11:31.861Z,35.40
2022-12-02T02:12:31.821Z,36.20
2022-12-02T02:13:31.856Z,35.50
2022-12-02T02:14:31.787Z,34.60
2022-12-02T02:15:31.777Z,35.00
2022-12-02T02:16:31.835Z,35.00
2022-12-02T02:17:31.754Z,35.90
2022-12-02T02:18:31.731Z,35.10
2022-12-02T02:19:31.730Z,35.10
2022-12-02T02:20:31.709Z,33.90
2022-12-02T02:21:31.734Z,33.80
2022-12-02T02:22:31.679Z,35.20
2022-12-02T02:23:31.678Z,34.20
2022-12-02T02:24:31.649Z,35.50
2022-12-02T02:25:31.645Z,35.00
2022-12-02T02:26:31.650Z,35.80
2022-12-02T02:27:31.653Z,35.20
2022-12-02T02:28:31.595Z,35.60
2022-12-02T02:29:31.594Z,34.90
2022-12-02T02:30:31.611Z,35.40
2022-12-02T02:31:31.602Z,34.50
2022-12-02T02:32:31.544Z,34.60
2022-12-02T02:33:31.544Z,35.10
2022-12-02T02:34:31.525Z,35.20
2022-12-02T02:35:31.517Z,34.90
2022-12-02T02:36:31.517Z,34.60
2022-12-02T02:37:31.510Z,34.80
2022-12-02T02:38:31.470Z,34.40
2022-12-02T02:39:31.460Z,34.80
2022-12-02T02:40:31.441Z,34.30
2022-12-02T02:41:31.448Z,34.00
2022-12-02T02:42:31.458Z,32.80
2022-12-02T02:43:31.432Z,33.50
2022-12-02T02:44:31.390Z,33.80
2022-12-02T02:45:31.400Z,34.30
2022-12-02T02:46:31.461Z,34.30
2022-12-02T02:47:31.356Z,35.10
2022-12-02T02:48:31.330Z,35.50
2022-12-02T02:49:31.364Z,32.90
2022-12-02T02:50:31.305Z,31.60
2022-12-02T02:51:31.352Z,34.10
2022-12-02T02:52:31.283Z,34.20
2022-12-02T02:53:31.278Z,34.40
2022-12-02T02:54:31.254Z,35.20
2022-12-02T02:55:31.251Z,32.40
2022-12-02T02:56:31.322Z,34.10
2022-12-02T02:57:31.225Z,34.50
2022-12-02T02:58:31.194Z,33.90
2022-12-02T02:59:31.198Z,34.10
2022-12-02T03:00:31.169Z,34.30
2022-12-02T03:01:31.321Z,33.70
2022-12-02T03:02:31.199Z,34.80
2022-12-02T03:03:31.169Z,35.00
2022-12-02T03:04:31.124Z,34.20
2022-12-02T03:05:31.114Z,34.70
2022-12-02T03:06:31.096Z,35.90
2022-12-02T03:07:31.129Z,35.40
2022-12-02T03:08:31.064Z,35.40
2022-12-02T03:09:31.100Z,35.50
2022-12-02T03:10:31.042Z,34.40
2022-12-02T03:11:31.069Z,34.50
2022-12-02T03:12:31.016Z,34.30
2022-12-02T03:13:31.060Z,35.30
2022-12-02T03:14:30.989Z,35.60
2022-12-02T03:15:30.988Z,33.80
2022-12-02T03:16:31.008Z,34.20
2022-12-02T03:17:30.968Z,33.40
2022-12-02T03:18:30.935Z,26.90
2022-12-02T03:19:30.952Z,26.90
2022-12-02T03:20:30.919Z,26.10
2022-12-02T03:21:30.932Z,26.30
2022-12-02T03:22:30.892Z,26.30
2022-12-02T03:23:30.879Z,24.70
2022-12-02T03:24:30.885Z,24.60
2022-12-02T03:25:30.849Z,24.70
2022-12-02T03:26:30.825Z,25.70
2022-12-02T03:27:30.818Z,25.90
2022-12-02T03:28:30.807Z,25.60
2022-12-02T03:29:30.831Z,25.50
2022-12-02T03:30:30.844Z,25.30
2022-12-02T03:31:30.804Z,24.90
2022-12-02T03:32:30.747Z,26.50
2022-12-02T03:33:30.741Z,26.30
2022-12-02T03:34:30.760Z,28.80
2022-12-02T03:35:30.727Z,28.70
2022-12-02T03:36:30.692Z,27.30
2022-12-02T03:37:30.724Z,26.60
2022-12-02T03:38:30.670Z,28.90
2022-12-02T03:39:30.713Z,28.00
2022-12-02T03:40:30.646Z,32.20
2022-12-02T03:41:30.688Z,30.30
2022-12-02T03:42:30.619Z,30.20
2022-12-02T03:43:30.609Z,32.50
2022-12-02T03:44:30.618Z,33.20
2022-12-02T03:45:30.611Z,35.00
2022-12-02T03:46:30.688Z,32.80
2022-12-02T03:47:30.558Z,31.00
2022-12-02T03:48:30.533Z,31.70
2022-12-02T03:49:30.559Z,30.40
2022-12-02T03:50:30.514Z,30.80
2022-12-02T03:51:30.510Z,31.90
2022-12-02T03:52:30.507Z,33.70
2022-12-02T03:53:30.516Z,33.80
2022-12-02T03:54:30.456Z,36.40
2022-12-02T03:55:30.459Z,35.60
2022-12-02T03:56:30.464Z,36.00
2022-12-02T03:57:30.431Z,35.70
2022-12-02T03:58:30.402Z,34.90
2022-12-02T03:59:30.422Z,34.90
2022-12-02T04:00:30.381Z,34.40
2022-12-02T04:01:30.463Z,35.40
2022-12-02T04:02:30.394Z,34.50
2022-12-02T04:03:30.350Z,35.30
2022-12-02T04:04:30.346Z,35.10
2022-12-02T04:05:30.326Z,34.20
2022-12-02T04:06:30.290Z,34.60
2022-12-02T04:07:30.371Z,34.50
2022-12-02T04:08:30.274Z,35.30
2022-12-02T04:09:30.310Z,35.20
2022-12-02T04:10:30.250Z,34.50
2022-12-02T04:11:30.252Z,35.80
2022-12-02T04:12:30.219Z,35.80
2022-12-02T04:13:30.218Z,35.80
2022-12-02T04:14:30.241Z,34.90
2022-12-02T04:15:30.328Z,35.80
2022-12-02T04:16:30.193Z,35.10
2022-12-02T04:17:30.162Z,35.10
2022-12-02T04:18:30.188Z,34.90
2022-12-02T04:19:30.157Z,36.10
2022-12-02T04:20:30.110Z,36.00
2022-12-02T04:21:30.164Z,32.90
2022-12-02T04:22:30.084Z,33.40
2022-12-02T04:23:30.112Z,32.50
2022-12-02T04:24:30.091Z,32.90
2022-12-02T04:25:30.048Z,32.90
2022-12-02T04:26:30.044Z,33.10
2022-12-02T04:27:30.024Z,33.60
2022-12-02T04:28:30.027Z,33.60
2022-12-02T04:29:30.031Z,34.20
2022-12-02T04:30:29.989Z,33.30
2022-12-02T04:31:30.086Z,33.70
2022-12-02T04:32:29.981Z,34.30
2022-12-02T04:33:29.954Z,33.80
2022-12-02T04:34:29.956Z,34.00
2022-12-02T04:35:29.916Z,33.50
2022-12-02T04:36:29.904Z,34.40
2022-12-02T04:37:29.899Z,33.40
2022-12-02T04:38:29.872Z,34.10
2022-12-02T04:39:29.893Z,33.20
2022-12-02T04:40:29.848Z,34.60
2022-12-02T04:41:29.855Z,35.30
2022-12-02T04:42:29.824Z,34.60
2022-12-02T04:43:29.844Z,36.20
2022-12-02T04:44:29.799Z,35.30
2022-12-02T04:45:29.785Z,33.80
2022-12-02T04:46:29.898Z,33.70
2022-12-02T04:47:29.763Z,35.60
2022-12-02T04:48:29.778Z,35.80
2022-12-02T04:49:29.742Z,35.30
2022-12-02T04:50:29.719Z,35.00
2022-12-02T04:51:29.735Z,34.60
2022-12-02T04:52:29.698Z,36.10
2022-12-02T04:53:29.683Z,36.90
2022-12-02T04:54:29.668Z,36.90
2022-12-02T04:55:29.656Z,37.00
2022-12-02T04:56:29.647Z,35.50
2022-12-02T04:57:31.690Z,35.80
2022-12-02T04:58:29.619Z,34.80
2022-12-02T04:59:29.605Z,35.90
2022-12-02T05:00:29.617Z,36.10
2022-12-02T05:01:29.576Z,34.70
2022-12-02T05:02:29.618Z,35.20
2022-12-02T05:03:29.548Z,34.50
2022-12-02T05:04:29.621Z,33.90
2022-12-02T05:05:29.542Z,36.30
2022-12-02T05:06:29.499Z,43.50
2022-12-02T05:07:29.562Z,50.60
2022-12-02T05:08:29.514Z,51.30
2022-12-02T05:09:29.477Z,51.10
2022-12-02T05:10:29.453Z,50.70
2022-12-02T05:11:34.757Z,49.40
2022-12-02T05:12:29.437Z,45.50
2022-12-02T05:13:29.419Z,42.50
2022-12-02T05:14:29.393Z,43.30
2022-12-02T05:15:29.407Z,40.80
2022-12-02T05:16:29.442Z,40.40
2022-12-02T05:17:29.371Z,38.40
2022-12-02T05:18:29.374Z,36.70
2022-12-02T05:19:29.342Z,35.90
2022-12-02T05:20:29.341Z,35.10
2022-12-02T05:21:29.315Z,35.40
2022-12-02T05:22:29.284Z,35.50
2022-12-02T05:23:29.282Z,34.80
2022-12-02T05:24:29.286Z,35.90
2022-12-02T05:25:29.284Z,35.60
2022-12-02T05:26:29.230Z,37.80
2022-12-02T05:27:34.973Z,36.30
2022-12-02T05:28:29.211Z,37.40
2022-12-02T05:29:29.220Z,35.70
2022-12-02T05:30:29.190Z,36.90
2022-12-02T05:31:29.337Z,39.00
2022-12-02T05:32:29.187Z,39.50
2022-12-02T05:33:29.168Z,38.10
2022-12-02T05:34:29.130Z,37.10
2022-12-02T05:35:29.128Z,37.00
2022-12-02T05:36:29.123Z,36.20
2022-12-02T05:37:29.094Z,35.40
2022-12-02T05:38:29.075Z,36.10
2022-12-02T05:39:29.107Z,36.60
2022-12-02T05:40:29.050Z,41.70
2022-12-02T05:41:29.084Z,38.80
2022-12-02T05:42:29.047Z,36.70
2022-12-02T05:43:29.021Z,36.00
2022-12-02T05:44:29.522Z,37.30
2022-12-02T05:45:28.994Z,34.80
2022-12-02T05:46:29.034Z,35.50
2022-12-02T05:47:28.952Z,36.20
2022-12-02T05:48:28.948Z,36.40
2022-12-02T05:49:28.926Z,35.90
2022-12-02T05:50:28.927Z,34.10
2022-12-02T05:51:28.943Z,35.60
2022-12-02T05:52:28.896Z,35.70
2022-12-02T05:53:28.877Z,34.90
2022-12-02T05:54:28.894Z,36.00
2022-12-02T05:55:28.893Z,35.80
2022-12-02T05:56:28.849Z,35.70
2022-12-02T05:57:28.882Z,35.90
2022-12-02T05:58:28.812Z,37.70
2022-12-02T05:59:28.798Z,37.70
2022-12-02T06:00:28.848Z,38.00
2022-12-02T06:01:28.772Z,40.30
2022-12-02T06:02:28.943Z,40.10
2022-12-02T06:03:28.908Z,37.90
2022-12-02T06:04:28.744Z,35.80
2022-12-02T06:05:28.749Z,34.90
2022-12-02T06:06:28.730Z,34.60
2022-12-02T06:07:28.741Z,34.40
2022-12-02T06:08:28.687Z,35.20
2022-12-02T06:09:28.658Z,35.50
2022-12-02T06:10:28.671Z,36.90
2022-12-02T06:11:28.648Z,36.90
2022-12-02T06:12:28.661Z,36.30
2022-12-02T06:13:28.616Z,36.30
2022-12-02T06:14:28.622Z,34.90
2022-12-02T06:15:28.596Z,35.70
2022-12-02T06:16:28.756Z,35.20
2022-12-02T06:17:28.578Z,34.60
2022-12-02T06:18:28.554Z,35.40
2022-12-02T06:19:30.989Z,35.90
2022-12-02T06:20:28.559Z,35.40
2022-12-02T06:21:28.556Z,35.10
2022-12-02T06:22:28.522Z,35.00
2022-12-02T06:23:28.483Z,35.20
2022-12-02T06:24:28.466Z,35.70
2022-12-02T06:25:28.447Z,35.20
2022-12-02T06:26:28.451Z,35.30
2022-12-02T06:27:28.453Z,36.40
2022-12-02T06:28:28.428Z,35.50
2022-12-02T06:29:28.400Z,37.30
2022-12-02T06:30:28.394Z,36.70
2022-12-02T06:31:28.472Z,37.00
2022-12-02T06:32:28.389Z,37.50
2022-12-02T06:33:28.337Z,36.50
2022-12-02T06:34:28.342Z,36.50
2022-12-02T06:35:28.322Z,36.20
2022-12-02T06:36:28.318Z,36.80
2022-12-02T06:37:28.312Z,35.50
2022-12-02T06:38:28.308Z,37.90
2022-12-02T06:39:28.268Z,35.60
2022-12-02T06:40:29.394Z,35.40
2022-12-02T06:41:28.240Z,36.30
2022-12-02T06:42:28.242Z,37.50
2022-12-02T06:43:28.240Z,36.70
2022-12-02T06:44:28.198Z,35.00
2022-12-02T06:45:29.720Z,34.90
2022-12-02T06:46:28.284Z,35.20
2022-12-02T06:47:28.156Z,35.00
2022-12-02T06:48:28.144Z,35.60
2022-12-02T06:49:28.149Z,36.30
2022-12-02T06:50:28.122Z,35.70
2022-12-02T06:51:28.103Z,36.10
2022-12-02T06:52:28.098Z,35.50
2022-12-02T06:53:28.110Z,37.00
2022-12-02T06:54:28.109Z,35.90
2022-12-02T06:55:28.043Z,37.60
2022-12-02T06:56:28.056Z,37.90
2022-12-02T06:57:28.019Z,38.30
2022-12-02T06:58:28.067Z,38.70
2022-12-02T06:59:28.017Z,37.30
2022-12-02T07:00:28.031Z,39.10
2022-12-02T07:01:28.129Z,38.50
2022-12-02T07:02:28.019Z,37.50
2022-12-02T07:03:27.954Z,37.70
2022-12-02T07:04:27.939Z,36.60
2022-12-02T07:05:27.927Z,36.60
2022-12-02T07:06:27.942Z,35.80
2022-12-02T07:07:28.004Z,37.30
2022-12-02T07:08:27.887Z,38.20
2022-12-02T07:09:27.864Z,38.30
2022-12-02T07:10:27.905Z,37.40
2022-12-02T07:11:27.838Z,38.60
2022-12-02T07:12:27.845Z,38.70
2022-12-02T07:13:27.814Z,38.00
2022-12-02T07:14:27.817Z,41.70
2022-12-02T07:15:27.830Z,40.20
2022-12-02T07:16:27.861Z,40.50
2022-12-02T07:17:27.756Z,41.50
2022-12-02T07:18:27.757Z,40.10
2022-12-02T07:19:27.730Z,40.70
2022-12-02T07:20:27.759Z,43.50
2022-12-02T07:21:27.704Z,42.30
2022-12-02T07:22:27.727Z,39.90
2022-12-02T07:23:27.690Z,38.10
2022-12-02T07:24:27.701Z,37.70
2022-12-02T07:25:27.661Z,37.00
2022-12-02T07:26:27.673Z,37.00
2022-12-02T07:27:27.635Z,37.70
2022-12-02T07:28:27.648Z,37.40
2022-12-02T07:29:27.607Z,37.10
2022-12-02T07:30:27.667Z,37.40
2022-12-02T07:31:27.653Z,38.20
2022-12-02T07:32:27.595Z,37.40
2022-12-02T07:33:27.548Z,39.40
2022-12-02T07:34:33.891Z,40.60
2022-12-02T07:35:27.520Z,40.70
2022-12-02T07:36:27.551Z,51.40
2022-12-02T07:37:27.487Z,40.60
2022-12-02T07:38:57.462Z,41.90
2022-12-02T07:39:27.473Z,68.40
2022-12-02T07:40:27.604Z,61.10
2022-12-02T07:41:30.650Z,60.10
2022-12-02T07:42:27.445Z,45.40
2022-12-02T07:43:27.457Z,45.30
2022-12-02T07:44:27.410Z,45.50
2022-12-02T07:45:27.385Z,45.80
2022-12-02T07:46:27.458Z,43.70
2022-12-02T07:47:27.367Z,44.30
2022-12-02T07:48:27.388Z,42.50
2022-12-02T07:49:27.331Z,43.90
2022-12-02T07:50:27.371Z,44.40
2022-12-02T07:51:27.320Z,44.20
2022-12-02T07:52:27.454Z,41.40
2022-12-02T07:53:27.284Z,41.10
2022-12-02T07:54:27.269Z,42.50
2022-12-02T07:55:27.259Z,43.20
2022-12-02T07:56:27.263Z,41.90
2022-12-02T07:57:27.253Z,42.50
2022-12-02T07:58:48.245Z,43.00
2022-12-02T07:59:27.241Z,43.20
2022-12-02T08:00:27.278Z,51.00
2022-12-02T08:01:27.233Z,46.10
2022-12-02T08:02:27.186Z,46.80
2022-12-02T08:03:27.188Z,45.70
2022-12-02T08:04:27.196Z,45.00
2022-12-02T08:05:27.125Z,44.70
2022-12-02T08:06:27.154Z,45.70
2022-12-02T08:07:27.162Z,46.40
2022-12-02T08:08:27.088Z,47.00
2022-12-02T08:09:27.077Z,44.40
2022-12-02T08:10:27.107Z,45.50
2022-12-02T08:11:27.037Z,44.50
2022-12-02T08:12:27.065Z,42.60
2022-12-02T08:13:27.044Z,42.80
2022-12-02T08:14:27.050Z,42.10
2022-12-02T08:15:26.996Z,42.10
2022-12-02T08:16:27.098Z,42.60
2022-12-02T08:17:26.963Z,41.90
2022-12-02T08:18:26.946Z,43.20
2022-12-02T08:19:26.948Z,42.70
2022-12-02T08:20:26.931Z,42.30
2022-12-02T08:21:26.911Z,42.30
2022-12-02T08:22:26.898Z,41.70
2022-12-02T08:23:26.886Z,42.10
2022-12-02T08:24:26.896Z,41.00
2022-12-02T08:25:26.856Z,40.20
2022-12-02T08:26:26.848Z,39.90
2022-12-02T08:27:26.834Z,38.90
2022-12-02T08:28:26.814Z,41.10
2022-12-02T08:29:26.829Z,41.00
2022-12-02T08:30:26.807Z,40.00
2022-12-02T08:31:26.865Z,41.10
2022-12-02T08:32:26.803Z,40.10
2022-12-02T08:33:26.752Z,39.60
2022-12-02T08:34:26.734Z,40.50
2022-12-02T08:35:26.730Z,40.20
2022-12-02T08:36:26.706Z,40.20
2022-12-02T08:37:26.717Z,40.40
2022-12-02T08:38:26.695Z,40.20
2022-12-02T08:39:26.670Z,39.30
2022-12-02T08:40:26.664Z,38.40
2022-12-02T08:41:26.650Z,37.70
2022-12-02T08:42:26.653Z,38.40
2022-12-02T08:43:26.623Z,38.50
2022-12-02T08:44:26.612Z,37.60
2022-12-02T08:45:26.589Z,37.80
2022-12-02T08:46:26.622Z,38.70
2022-12-02T08:47:26.575Z,38.60
2022-12-02T08:48:26.683Z,37.70
2022-12-02T08:49:26.539Z,37.70
2022-12-02T08:50:26.522Z,37.40
2022-12-02T08:51:26.505Z,37.90
2022-12-02T08:52:26.495Z,37.60
2022-12-02T08:53:26.515Z,37.70
2022-12-02T08:54:26.470Z,37.20
2022-12-02T08:55:26.453Z,36.70
2022-12-02T08:56:26.442Z,37.10
2022-12-02T08:57:26.447Z,37.30
2022-12-02T08:58:26.428Z,36.50
2022-12-02T08:59:26.432Z,37.40
2022-12-02T09:00:26.411Z,37.40
2022-12-02T09:01:26.421Z,38.90
2022-12-02T09:02:26.406Z,39.60
2022-12-02T09:03:26.357Z,40.00
2022-12-02T09:04:26.340Z,39.90
2022-12-02T09:05:26.354Z,37.70
2022-12-02T09:06:26.377Z,39.40
2022-12-02T09:07:26.340Z,40.50
2022-12-02T09:08:26.335Z,39.60
2022-12-02T09:09:26.261Z,39.60
2022-12-02T09:10:26.319Z,40.10
2022-12-02T09:11:26.940Z,40.00
2022-12-02T09:12:26.233Z,39.50
2022-12-02T09:13:26.238Z,38.20
2022-12-02T09:14:26.251Z,39.50
2022-12-02T09:15:26.196Z,38.70
2022-12-02T09:16:26.225Z,39.50
2022-12-02T09:17:26.166Z,39.00
2022-12-02T09:18:26.178Z,39.30
2022-12-02T09:19:26.220Z,41.00
2022-12-02T09:20:26.123Z,40.00
2022-12-02T09:21:26.133Z,39.90
2022-12-02T09:22:26.102Z,39.50
2022-12-02T09:23:26.090Z,39.50
2022-12-02T09:24:26.080Z,38.50
2022-12-02T09:25:26.088Z,38.80
2022-12-02T09:26:26.072Z,39.20
2022-12-02T09:27:26.039Z,37.80
2022-12-02T09:28:26.023Z,38.30
2022-12-02T09:29:26.008Z,39.80
2022-12-02T09:30:26.033Z,38.50
2022-12-02T09:31:26.015Z,38.30
2022-12-02T09:32:25.991Z,38.40
2022-12-02T09:33:30.676Z,37.30
2022-12-02T09:34:25.966Z,37.40
2022-12-02T09:35:25.913Z,37.60
2022-12-02T09:36:25.996Z,37.60
2022-12-02T09:37:25.897Z,37.80
2022-12-02T09:38:25.879Z,38.80
2022-12-02T09:39:25.905Z,38.30
2022-12-02T09:40:25.864Z,39.30
2022-12-02T09:41:25.836Z,39.40
2022-12-02T09:42:25.839Z,38.70
2022-12-02T09:43:25.820Z,38.60
2022-12-02T09:44:25.836Z,39.00
2022-12-02T09:45:25.789Z,38.30
2022-12-02T09:46:25.823Z,38.00
2022-12-02T09:47:25.753Z,37.50
2022-12-02T09:48:25.760Z,36.70
2022-12-02T09:49:25.761Z,37.70
2022-12-02T09:50:25.730Z,38.10
2022-12-02T09:51:25.972Z,36.40
2022-12-02T09:52:26.566Z,34.70
2022-12-02T09:53:25.705Z,34.10
2022-12-02T09:54:25.671Z,35.40
2022-12-02T09:55:25.662Z,34.10
2022-12-02T09:56:25.644Z,34.50
2022-12-02T09:57:25.627Z,35.20
2022-12-02T09:58:25.726Z,34.50
2022-12-02T09:59:25.625Z,32.70
2022-12-02T10:00:25.594Z,34.50
2022-12-02T10:01:25.667Z,34.50
2022-12-02T10:02:25.644Z,34.30
2022-12-02T10:03:25.640Z,34.20
2022-12-02T10:04:25.540Z,32.40
2022-12-02T10:05:25.536Z,32.60
2022-12-02T10:06:25.513Z,38.80
2022-12-02T10:07:25.537Z,37.30
2022-12-02T10:08:25.476Z,34.80
2022-12-02T10:09:25.505Z,34.50
2022-12-02T10:10:25.450Z,33.80
2022-12-02T10:11:25.468Z,33.70
2022-12-02T10:12:25.416Z,33.60
2022-12-02T10:13:25.449Z,33.60
2022-12-02T10:14:25.393Z,32.50
2022-12-02T10:15:25.408Z,32.00
2022-12-02T10:16:25.475Z,31.00
2022-12-02T10:17:25.403Z,32.40
2022-12-02T10:18:25.411Z,32.40
2022-12-02T10:19:25.345Z,30.80
2022-12-02T10:20:25.323Z,29.90
2022-12-02T10:21:25.308Z,30.60
2022-12-02T10:22:25.296Z,30.70
2022-12-02T10:23:25.311Z,30.30
2022-12-02T10:24:25.268Z,32.00
2022-12-02T10:25:25.298Z,30.80
2022-12-02T10:26:25.238Z,30.80
2022-12-02T10:27:25.228Z,29.50
2022-12-02T10:28:25.209Z,28.90
2022-12-02T10:29:25.206Z,29.50
2022-12-02T10:30:25.219Z,29.90
2022-12-02T10:31:25.281Z,29.20
2022-12-02T10:32:25.166Z,28.30
2022-12-02T10:33:25.208Z,27.90
2022-12-02T10:34:25.161Z,27.00
2022-12-02T10:35:25.127Z,26.10
2022-12-02T10:36:25.099Z,27.20
2022-12-02T10:37:25.102Z,26.70
2022-12-02T10:38:25.165Z,26.50
2022-12-02T10:39:25.104Z,32.20
2022-12-02T10:40:25.050Z,28.00
2022-12-02T10:41:25.088Z,24.80
2022-12-02T10:42:25.036Z,24.80
2022-12-02T10:43:25.034Z,23.40
2022-12-02T10:44:25.010Z,23.40
2022-12-02T10:45:25.018Z,22.40
2022-12-02T10:46:25.029Z,21.40
2022-12-02T10:47:26.839Z,21.40
2022-12-02T10:48:24.954Z,20.80
2022-12-02T10:49:24.936Z,21.20
2022-12-02T10:50:24.942Z,21.90
2022-12-02T10:51:24.934Z,21.90
2022-12-02T10:52:24.893Z,21.70
2022-12-02T10:53:24.892Z,22.20
2022-12-02T10:54:24.862Z,22.60
2022-12-02T10:55:24.874Z,21.80
2022-12-02T10:56:24.836Z,23.20
2022-12-02T10:57:24.833Z,23.60
2022-12-02T10:58:24.819Z,23.40
2022-12-02T10:59:24.850Z,24.00
2022-12-02T11:00:24.807Z,23.60
2022-12-02T11:01:24.859Z,23.70
2022-12-02T11:02:24.831Z,23.70
2022-12-02T11:03:24.759Z,23.60
2022-12-02T11:04:24.725Z,23.30
2022-12-02T11:05:24.752Z,22.80
2022-12-02T11:06:24.712Z,23.30
2022-12-02T11:07:24.774Z,24.70
2022-12-02T11:08:24.745Z,24.10
2022-12-02T11:09:41.256Z,24.60
2022-12-02T11:10:24.682Z,25.40
2022-12-02T11:11:24.667Z,26.30
2022-12-02T11:12:24.619Z,27.20
2022-12-02T11:13:24.615Z,27.60
2022-12-02T11:14:24.623Z,27.20
2022-12-02T11:15:24.633Z,25.60
2022-12-02T11:16:24.682Z,23.90
2022-12-02T11:17:24.565Z,23.80
2022-12-02T11:18:24.548Z,23.50
2022-12-02T11:19:24.574Z,24.80
2022-12-02T11:20:24.540Z,23.50
2022-12-02T11:21:24.515Z,24.20
2022-12-02T11:22:24.486Z,23.10
2022-12-02T11:23:24.482Z,24.30
2022-12-02T11:24:24.482Z,23.70
2022-12-02T11:25:24.492Z,22.30
2022-12-02T11:26:24.433Z,23.20
2022-12-02T11:27:24.462Z,23.10
2022-12-02T11:28:24.419Z,22.90
2022-12-02T11:29:24.396Z,23.40
2022-12-02T11:30:24.437Z,23.20
2022-12-02T11:31:24.501Z,25.20
2022-12-02T11:32:24.354Z,24.00
2022-12-02T11:33:24.346Z,23.10
2022-12-02T11:34:24.344Z,26.60
2022-12-02T11:35:24.590Z,29.10
2022-12-02T11:36:24.330Z,32.40
2022-12-02T11:37:24.300Z,30.90
2022-12-02T11:38:24.284Z,33.00
2022-12-02T11:39:24.293Z,29.20
2022-12-02T11:40:24.277Z,27.80
2022-12-02T11:41:24.249Z,40.20
2022-12-02T11:42:24.218Z,37.40
2022-12-02T11:43:24.218Z,36.40
2022-12-02T11:44:24.193Z,66.20
2022-12-02T11:45:24.372Z,78.70
2022-12-02T11:46:24.187Z,59.30
2022-12-02T11:47:24.175Z,53.20
2022-12-02T11:48:24.131Z,40.20
2022-12-02T11:49:24.172Z,30.60
2022-12-02T11:50:24.116Z,32.00
2022-12-02T11:51:24.111Z,35.10
2022-12-02T11:52:24.085Z,65.60
2022-12-02T11:53:24.092Z,91.60
2022-12-02T11:54:24.055Z,53.30
2022-12-02T11:55:24.078Z,142.60
2022-12-02T11:56:24.169Z,138.50
2022-12-02T11:57:24.019Z,39.00
2022-12-02T11:58:24.006Z,46.60
2022-12-02T11:59:23.989Z,39.10
2022-12-02T12:00:23.996Z,59.20
2022-12-02T12:01:23.984Z,43.90
2022-12-02T12:02:24.065Z,42.80
2022-12-02T12:03:24.030Z,37.80
2022-12-02T12:04:23.942Z,34.90
2022-12-02T12:05:23.934Z,33.40
2022-12-02T12:06:23.939Z,31.90
2022-12-02T12:07:23.926Z,31.60
2022-12-02T12:08:23.882Z,33.30
2022-12-02T12:09:23.878Z,38.40
2022-12-02T12:10:23.895Z,36.60
2022-12-02T12:11:23.841Z,39.10
2022-12-02T12:12:23.818Z,42.50
2022-12-02T12:13:23.892Z,40.20
2022-12-02T12:14:23.870Z,42.80
2022-12-02T12:15:23.789Z,50.40
2022-12-02T12:16:23.811Z,39.90
2022-12-02T12:17:23.779Z,37.50
2022-12-02T12:18:23.790Z,36.40
2022-12-02T12:19:23.736Z,35.90
2022-12-02T12:20:23.726Z,35.20
2022-12-02T12:21:23.719Z,39.20
2022-12-02T12:22:23.748Z,39.30
2022-12-02T12:23:23.673Z,37.00
2022-12-02T12:24:23.871Z,32.00
2022-12-02T12:25:23.794Z,41.70
2022-12-02T12:26:23.634Z,48.90
2022-12-02T12:27:23.738Z,37.90
2022-12-02T12:28:23.625Z,32.50
2022-12-02T12:29:23.625Z,34.60
2022-12-02T12:30:23.570Z,35.60
2022-12-02T12:31:23.577Z,34.60
2022-12-02T12:32:23.654Z,41.90
2022-12-02T12:33:23.559Z,44.30
2022-12-02T12:34:23.553Z,41.20
2022-12-02T12:35:23.518Z,43.10
2022-12-02T12:36:23.536Z,33.70
2022-12-02T12:37:23.494Z,31.90
2022-12-02T12:38:28.707Z,30.50
2022-12-02T12:39:23.524Z,31.70
2022-12-02T12:40:23.440Z,34.30
2022-12-02T12:41:43.957Z,37.50
2022-12-02T12:42:23.433Z,36.70
2022-12-02T12:43:23.415Z,58.90
2022-12-02T12:44:29.452Z,59.60
2022-12-02T12:45:23.401Z,79.60
2022-12-02T12:46:23.466Z,52.40
2022-12-02T12:47:23.356Z,54.80
2022-12-02T12:48:23.350Z,42.50
2022-12-02T12:49:23.377Z,30.80
2022-12-02T12:50:28.528Z,31.40
2022-12-02T12:51:23.348Z,33.80
2022-12-02T12:52:23.281Z,33.90
2022-12-02T12:53:23.286Z,33.70
2022-12-02T12:54:23.256Z,33.10
2022-12-02T12:55:23.257Z,33.50